Time;durP1;ratioP1;P1;durP2;ratioP2;P2;SDS_P1;SDS_P2;PMS_P1;PMS_P2;Temp;Humidity;BMP_temperature;BMP_pressure;BME280_temperature;BME280_humidity;BME280_pressure;Samples;Min_cycle;Max_cycle;Signal;HPM_P1;HPM_P2
2022/01/28 00:01:38;;;;;;;7.15;3.20;;;16.90;64.70;;;;;;5113778;28;20384;-77
2022/01/28 00:04:13;;;;;;;5.17;2.97;;;16.80;64.60;;;;;;5118374;27;20035;-78
2022/01/28 00:06:39;;;;;;;7.25;3.67;;;16.80;64.60;;;;;;5134595;27;20329;-79
2022/01/28 00:09:04;;;;;;;5.72;3.20;;;16.80;64.70;;;;;;5134449;27;20031;-76
2022/01/28 00:11:30;;;;;;;6.25;2.85;;;16.70;64.70;;;;;;5134334;27;20057;-77
2022/01/28 00:14:09;;;;;;;6.60;3.38;;;16.70;64.80;;;;;;5134583;27;20098;-78
2022/01/28 00:17:06;;;;;;;7.25;3.15;;;16.70;64.70;;;;;;5134152;27;20107;-77
2022/01/28 00:38:36;;;;;;;6.78;3.05;;;16.40;64.90;;;;;;5133840;27;20502;-76
2022/01/28 00:41:03;;;;;;;6.82;3.17;;;16.40;64.50;;;;;;5134015;27;20080;-76
2022/01/28 00:43:28;;;;;;;5.63;2.88;;;16.40;64.90;;;;;;5133724;27;20011;-79
2022/01/28 00:45:55;;;;;;;6.63;2.83;;;16.40;65.70;;;;;;5129893;27;20506;-79
2022/01/28 00:48:21;;;;;;;5.68;2.90;;;16.40;65.00;;;;;;5112959;28;20076;-78
2022/01/28 00:50:47;;;;;;;6.28;3.30;;;16.30;64.90;;;;;;5113316;28;20020;-78
2022/01/28 00:53:13;;;;;;;5.00;2.80;;;16.30;64.90;;;;;;5112135;28;20109;-78
2022/01/28 00:55:39;;;;;;;8.02;3.05;;;16.30;65.00;;;;;;5113037;28;20019;-77
2022/01/28 00:58:05;;;;;;;7.03;3.38;;;16.30;65.00;;;;;;5113130;28;20031;-77
2022/01/28 01:00:31;;;;;;;5.82;3.20;;;16.20;65.00;;;;;;5112861;28;20031;-77
2022/01/28 01:02:57;;;;;;;5.38;2.95;;;16.20;65.00;;;;;;5112809;28;20383;-75
2022/01/28 01:05:23;;;;;;;5.07;2.90;;;16.20;65.10;;;;;;5112663;28;20023;-77
2022/01/28 01:07:50;;;;;;;5.53;2.83;;;16.20;65.00;;;;;;5113023;28;20034;-75
2022/01/28 01:10:16;;;;;;;4.55;2.90;;;16.20;65.10;;;;;;5112665;28;20020;-78
2022/01/28 01:12:46;;;;;;;6.28;2.97;;;16.10;65.10;;;;;;5111838;28;20031;-78
2022/01/28 01:15:17;;;;;;;7.10;2.75;;;16.10;65.00;;;;;;5112946;28;20057;-78
2022/01/28 01:18:33;;;;;;;4.85;2.35;;;16.10;65.00;;;;;;5113149;27;20035;-77
2022/01/28 01:20:50;;;;;;;7.88;2.97;;;16.10;65.10;;;;;;5106578;28;20028;-78
2022/01/28 01:28:20;;;;;;;5.55;3.00;;;16.00;67.90;;;;;;5112453;28;20027;-78
2022/01/28 01:30:46;;;;;;;7.18;2.95;;;16.00;70.50;;;;;;5112542;28;20035;-78
2022/01/28 01:33:13;;;;;;;4.78;2.55;;;16.10;70.70;;;;;;5112701;28;20095;-77
2022/01/28 01:35:39;;;;;;;7.18;2.92;;;16.00;70.80;;;;;;5112437;28;20475;-77
2022/01/28 01:38:08;;;;;;;4.90;3.15;;;16.10;71.20;;;;;;5112255;28;20123;-77
2022/01/28 01:40:41;;;;;;;5.22;2.60;;;16.10;71.10;;;;;;5110873;28;20027;-77
2022/01/28 01:43:17;;;;;;;6.70;2.83;;;16.10;71.10;;;;;;5112298;28;20049;-77
2022/01/28 01:46:01;;;;;;;7.07;3.92;;;16.10;70.80;;;;;;5115939;27;20514;-77
2022/01/28 01:53:58;;;;;;;8.07;2.97;;;16.10;68.60;;;;;;5132809;27;20398;-77
2022/01/28 01:56:24;;;;;;;8.02;3.35;;;16.10;68.30;;;;;;5132395;27;20483;-77
2022/01/28 01:58:50;;;;;;;4.63;2.70;;;16.00;68.20;;;;;;5114091;27;20479;-76
2022/01/28 02:01:16;;;;;;;6.15;3.20;;;16.10;68.10;;;;;;5113733;27;20026;-76
2022/01/28 02:03:42;;;;;;;4.72;2.38;;;16.10;67.90;;;;;;5132592;27;20414;-78
2022/01/28 02:06:07;;;;;;;6.00;2.15;;;16.10;67.70;;;;;;5132199;27;20039;-77
2022/01/28 02:08:34;;;;;;;5.65;2.42;;;16.10;67.60;;;;;;5131671;27;20023;-77
2022/01/28 02:11:01;;;;;;;5.43;2.40;;;16.10;67.50;;;;;;5132314;27;20023;-78
2022/01/28 02:13:28;;;;;;;5.05;2.60;;;16.10;67.40;;;;;;5132112;27;20027;-77
2022/01/28 02:15:56;;;;;;;5.05;2.95;;;16.10;67.20;;;;;;5126852;27;20072;-75
2022/01/28 02:18:23;;;;;;;4.78;2.33;;;16.10;67.10;;;;;;5111334;28;20369;-77
2022/01/28 02:20:51;;;;;;;3.80;2.13;;;16.10;66.80;;;;;;5111628;28;20045;-77
2022/01/28 02:23:19;;;;;;;5.65;2.72;;;16.10;66.80;;;;;;5111466;28;20046;-74
2022/01/28 02:25:45;;;;;;;3.78;2.35;;;16.10;66.70;;;;;;5110290;28;20019;-78
2022/01/28 02:28:14;;;;;;;4.35;2.13;;;16.10;66.60;;;;;;5111747;28;20035;-77
2022/01/28 02:30:40;;;;;;;4.72;2.60;;;16.10;66.50;;;;;;5111873;28;20028;-77
2022/01/28 02:33:16;;;;;;;7.60;2.90;;;16.10;66.30;;;;;;5111604;28;20093;-76
2022/01/28 02:35:43;;;;;;;5.50;2.33;;;16.10;66.20;;;;;;5111761;28;20034;-77
2022/01/28 02:38:10;;;;;;;3.75;2.38;;;16.10;65.90;;;;;;5111789;28;20034;-77
2022/01/28 02:40:36;;;;;;;4.80;2.58;;;16.20;65.80;;;;;;5111329;28;20423;-76
2022/01/28 02:43:17;;;;;;;3.50;2.00;;;16.20;65.60;;;;;;5111507;28;20026;-77
2022/01/28 02:45:44;;;;;;;5.70;2.75;;;16.20;65.50;;;;;;5114809;28;20084;-77
2022/01/28 02:48:21;;;;;;;5.50;2.60;;;16.20;65.40;;;;;;5132309;27;20047;-76
2022/01/28 02:51:23;;;;;;;3.95;2.00;;;16.20;65.30;;;;;;5132026;27;20051;-78
2022/01/28 02:54:11;;;;;;;4.75;2.22;;;16.10;65.10;;;;;;5128968;27;20490;-75
2022/01/28 02:56:37;;;;;;;3.65;2.05;;;16.20;65.00;;;;;;5110646;28;20123;-76
2022/01/28 02:59:04;;;;;;;5.03;2.42;;;16.20;64.90;;;;;;5093206;28;20034;-75
2022/01/28 03:01:29;;;;;;;5.07;2.40;;;16.20;64.90;;;;;;5111158;28;20463;-75
2022/01/28 03:03:56;;;;;;;3.90;1.85;;;16.20;64.90;;;;;;5111197;28;20130;-75
2022/01/28 03:06:22;;;;;;;5.28;2.55;;;16.20;65.00;;;;;;5111085;28;20035;-75
2022/01/28 03:08:57;;;;;;;4.40;2.45;;;16.20;64.70;;;;;;5111306;28;20062;-75
2022/01/28 03:11:43;;;;;;;4.40;2.40;;;16.20;64.60;;;;;;5092905;28;20479;-76
2022/01/28 03:17:06;;;;;;;4.50;2.30;;;16.20;64.40;;;;;;5126989;28;20030;-75
2022/01/28 03:19:44;;;;;;;4.60;2.28;;;16.20;64.30;;;;;;5133929;27;20443;-75
2022/01/28 03:22:10;;;;;;;4.47;2.28;;;16.20;64.30;;;;;;5135777;27;20485;-75
2022/01/28 03:24:36;;;;;;;6.38;2.60;;;16.20;64.20;;;;;;5116859;27;20023;-75
2022/01/28 03:27:08;;;;;;;4.13;2.22;;;16.20;64.80;;;;;;5135424;27;20060;-79
2022/01/28 03:29:33;;;;;;;5.13;2.13;;;16.20;64.00;;;;;;5135135;27;20570;-79
2022/01/28 03:31:59;;;;;;;4.45;2.35;;;16.20;63.90;;;;;;5116995;27;20051;-78
2022/01/28 03:34:25;;;;;;;5.65;2.30;;;16.20;63.70;;;;;;5135115;27;20027;-77
2022/01/28 03:36:51;;;;;;;3.75;2.00;;;16.20;63.60;;;;;;5135259;27;20038;-79
2022/01/28 03:39:18;;;;;;;4.15;2.17;;;16.20;63.50;;;;;;5135055;27;20011;-78
2022/01/28 03:41:44;;;;;;;5.10;2.30;;;16.20;63.40;;;;;;5135270;27;20030;-75
2022/01/28 03:44:09;;;;;;;4.32;2.30;;;16.20;63.30;;;;;;5135424;27;20023;-75
2022/01/28 03:46:35;;;;;;;6.45;2.70;;;16.20;63.20;;;;;;5121582;27;20067;-77
2022/01/28 03:49:02;;;;;;;4.97;2.22;;;16.20;63.20;;;;;;5114410;28;20032;-74
2022/01/28 03:51:28;;;;;;;3.28;2.10;;;16.20;63.10;;;;;;5114199;28;20023;-75
2022/01/28 03:53:53;;;;;;;5.50;1.77;;;16.20;63.00;;;;;;5114749;28;20371;-78
2022/01/28 03:56:19;;;;;;;4.65;2.30;;;16.20;63.00;;;;;;5114110;28;20026;-78
2022/01/28 03:58:44;;;;;;;4.32;1.92;;;16.20;62.90;;;;;;5113013;28;20115;-78
2022/01/28 04:01:22;;;;;;;4.85;2.20;;;16.20;62.80;;;;;;5114437;28;20020;-78
2022/01/28 04:11:48;;;;;;;3.50;1.98;;;16.30;62.60;;;;;;5114404;28;20031;-75
2022/01/28 04:14:37;;;;;;;5.35;2.30;;;16.30;62.60;;;;;;5113928;28;20019;-78
2022/01/28 04:19:32;;;;;;;5.60;2.70;;;16.30;62.50;;;;;;5134130;27;20027;-75
2022/01/28 04:21:58;;;;;;;5.55;2.58;;;16.30;62.30;;;;;;5134412;27;20031;-75
2022/01/28 04:24:23;;;;;;;5.50;2.40;;;16.30;62.30;;;;;;5134015;27;20383;-79
2022/01/28 04:26:49;;;;;;;3.72;2.17;;;16.30;62.30;;;;;;5134272;27;20063;-78
2022/01/28 04:29:15;;;;;;;4.97;2.33;;;16.30;62.20;;;;;;5133972;27;20027;-76
2022/01/28 04:31:45;;;;;;;5.20;2.30;;;16.30;62.20;;;;;;5133970;27;20027;-77
2022/01/28 04:34:11;;;;;;;5.90;2.25;;;16.30;62.20;;;;;;5134484;27;20015;-79
2022/01/28 04:36:45;;;;;;;4.97;2.17;;;16.30;62.20;;;;;;5133902;27;20019;-79
2022/01/28 04:39:23;;;;;;;4.40;2.10;;;16.30;62.10;;;;;;5134457;27;20039;-77
2022/01/28 04:44:33;;;;;;;3.38;1.80;;;16.30;61.90;;;;;;5133479;27;20427;-78
2022/01/28 04:47:07;;;;;;;4.00;2.08;;;16.30;61.80;;;;;;5115825;27;20032;-75
2022/01/28 04:49:49;;;;;;;4.97;2.50;;;16.30;61.80;;;;;;5113034;28;20028;-76
2022/01/28 04:58:05;;;;;;;4.13;2.30;;;16.30;61.50;;;;;;5071474;28;20032;-77
2022/01/28 05:00:45;;;;;;;4.63;2.38;;;16.30;61.50;;;;;;5112919;28;20035;-76
2022/01/28 05:27:14;;;;;;;4.55;2.15;;;16.30;61.10;;;;;;5112784;28;20035;-77
2022/01/28 05:29:40;;;;;;;4.53;2.00;;;16.30;61.10;;;;;;5112649;28;20548;-76
2022/01/28 05:32:08;;;;;;;5.32;2.50;;;16.30;61.00;;;;;;5094261;28;20032;-77
2022/01/28 05:34:34;;;;;;;4.60;2.65;;;16.30;61.00;;;;;;5112163;28;20044;-74
2022/01/28 05:37:00;;;;;;;4.85;2.20;;;16.30;61.00;;;;;;5112435;28;20023;-74
2022/01/28 05:39:26;;;;;;;4.78;2.25;;;16.30;60.90;;;;;;5112107;28;20391;-78
2022/01/28 05:41:51;;;;;;;7.25;2.72;;;16.40;60.90;;;;;;5111541;28;20055;-74
2022/01/28 05:44:21;;;;;;;7.90;2.50;;;16.30;60.80;;;;;;5111475;28;20065;-75
2022/01/28 05:46:47;;;;;;;6.35;2.42;;;16.40;60.80;;;;;;5128970;27;20043;-76
2022/01/28 05:49:14;;;;;;;5.05;2.35;;;16.40;60.70;;;;;;5114627;27;20019;-75
2022/01/28 05:51:43;;;;;;;5.50;2.35;;;16.40;60.70;;;;;;5132981;27;20029;-75
2022/01/28 05:54:10;;;;;;;5.53;2.05;;;16.40;61.40;;;;;;5114405;27;20019;-75
2022/01/28 05:56:35;;;;;;;5.25;2.15;;;16.40;60.70;;;;;;5132409;27;20543;-75
2022/01/28 05:59:01;;;;;;;5.63;2.38;;;16.40;60.80;;;;;;5132556;27;20059;-75
2022/01/28 06:01:27;;;;;;;5.80;2.40;;;16.40;60.60;;;;;;5130292;27;20395;-75
2022/01/28 06:03:53;;;;;;;3.63;1.98;;;16.50;60.60;;;;;;5131674;27;20096;-75
2022/01/28 06:06:20;;;;;;;4.30;2.10;;;16.50;60.50;;;;;;5132247;27;20042;-75
2022/01/28 06:08:50;;;;;;;6.10;2.50;;;16.50;60.50;;;;;;5132493;27;20094;-76
2022/01/28 06:11:17;;;;;;;5.63;2.22;;;16.50;60.50;;;;;;5132204;27;20391;-77
2022/01/28 06:13:46;;;;;;;5.38;1.98;;;16.50;60.50;;;;;;5132649;27;20023;-79
2022/01/28 06:16:14;;;;;;;7.13;2.20;;;16.60;60.40;;;;;;5120453;27;20027;-77
2022/01/28 06:18:40;;;;;;;5.25;2.13;;;16.60;60.30;;;;;;5110568;28;20483;-78
2022/01/28 06:21:06;;;;;;;5.45;1.75;;;16.60;60.20;;;;;;5111874;28;20103;-78
2022/01/28 06:23:32;;;;;;;5.70;2.30;;;16.60;60.40;;;;;;5111429;28;20062;-79
2022/01/28 06:25:58;;;;;;;7.00;2.35;;;16.70;60.30;;;;;;5110318;28;20039;-76
2022/01/28 06:28:24;;;;;;;7.38;2.55;;;16.70;60.20;;;;;;5111476;28;20394;-76
2022/01/28 06:30:49;;;;;;;4.43;2.10;;;16.70;60.10;;;;;;5111708;28;20145;-78
2022/01/28 06:33:15;;;;;;;5.82;2.47;;;16.80;60.10;;;;;;5110078;28;20467;-77
2022/01/28 06:35:42;;;;;;;4.72;2.08;;;16.80;60.00;;;;;;5112041;28;20027;-76
2022/01/28 06:38:07;;;;;;;5.93;2.15;;;16.80;59.90;;;;;;5110142;28;20027;-79
2022/01/28 06:40:33;;;;;;;6.15;2.35;;;16.90;59.90;;;;;;5111443;28;20333;-78
2022/01/28 06:42:59;;;;;;;5.55;2.47;;;16.90;59.90;;;;;;5111542;28;20023;-78
2022/01/28 06:45:24;;;;;;;3.08;1.85;;;16.90;60.00;;;;;;5118996;28;20076;-77
2022/01/28 06:47:50;;;;;;;4.43;1.83;;;16.90;59.90;;;;;;5132064;28;20023;-78
2022/01/28 06:50:16;;;;;;;6.20;2.30;;;16.90;59.80;;;;;;5131780;28;20025;-77
2022/01/28 06:52:42;;;;;;;7.07;2.55;;;16.90;59.70;;;;;;5132194;28;20031;-77
2022/01/28 06:55:10;;;;;;;5.78;1.90;;;16.90;59.70;;;;;;5134707;27;20555;-77
2022/01/28 06:57:36;;;;;;;4.22;1.98;;;16.90;59.70;;;;;;5135937;27;20391;-78
2022/01/28 07:00:02;;;;;;;4.03;2.15;;;17.00;60.00;;;;;;5136008;27;20075;-76
2022/01/28 07:02:28;;;;;;;5.53;2.13;;;17.00;60.00;;;;;;5135638;27;20083;-77
2022/01/28 07:04:53;;;;;;;5.15;1.95;;;17.00;60.20;;;;;;5135972;27;20110;-78
2022/01/28 07:07:22;;;;;;;5.90;1.90;;;17.10;60.10;;;;;;5117047;27;20491;-76
2022/01/28 07:09:48;;;;;;;4.72;2.05;;;17.10;60.10;;;;;;5135641;27;20163;-77
2022/01/28 07:12:15;;;;;;;5.43;1.75;;;17.10;60.20;;;;;;5135960;27;20110;-75
2022/01/28 07:14:40;;;;;;;6.95;1.70;;;17.10;60.20;;;;;;5134300;27;20423;-78
2022/01/28 07:17:06;;;;;;;5.82;1.88;;;17.20;60.30;;;;;;5129638;27;20153;-81
2022/01/28 07:19:31;;;;;;;7.55;2.10;;;17.20;60.20;;;;;;5114758;28;20058;-76
2022/01/28 07:21:58;;;;;;;5.55;1.98;;;17.20;60.10;;;;;;5114727;28;20027;-79
2022/01/28 07:24:24;;;;;;;7.60;2.90;;;17.20;60.00;;;;;;5130344;27;20023;-80
2022/01/28 07:26:51;;;;;;;5.15;2.58;;;17.20;60.00;;;;;;5135290;27;20037;-75
2022/01/28 07:29:17;;;;;;;4.97;2.20;;;17.20;59.90;;;;;;5134974;27;20023;-75
2022/01/28 07:31:43;;;;;;;4.22;1.92;;;17.20;59.80;;;;;;5135512;27;20019;-79
2022/01/28 07:34:09;;;;;;;9.35;2.92;;;17.20;59.90;;;;;;5131616;27;20123;-81
2022/01/28 07:36:36;;;;;;;6.35;2.70;;;17.20;59.80;;;;;;5118963;27;20039;-81
2022/01/28 07:39:05;;;;;;;8.13;2.85;;;17.10;59.60;;;;;;5114567;28;20543;-83
2022/01/28 07:41:32;;;;;;;4.63;1.90;;;17.20;59.50;;;;;;5123601;27;20419;-87
2022/01/28 07:43:57;;;;;;;5.32;2.33;;;17.10;59.30;;;;;;5124859;27;20031;-84
2022/01/28 07:46:23;;;;;;;6.68;2.13;;;17.20;59.20;;;;;;5125144;27;20037;-84
2022/01/28 07:48:49;;;;;;;5.80;2.25;;;17.10;59.10;;;;;;5123907;27;20397;-83
2022/01/28 07:51:14;;;;;;;5.25;2.38;;;17.10;59.00;;;;;;5122114;27;20416;-81
2022/01/28 07:53:40;;;;;;;6.20;2.53;;;17.10;58.80;;;;;;5120140;27;20027;-75
2022/01/28 07:56:06;;;;;;;5.85;1.95;;;17.10;58.80;;;;;;5114493;28;20020;-74
2022/01/28 07:58:31;;;;;;;8.38;2.20;;;17.10;58.90;;;;;;5122897;27;20023;-84
2022/01/28 08:00:57;;;;;;;7.03;2.75;;;17.10;59.10;;;;;;5115629;27;20118;-83
2022/01/28 08:03:23;;;;;;;4.90;2.08;;;17.10;59.10;;;;;;5133796;27;20032;-82
2022/01/28 08:05:48;;;;;;;3.80;1.92;;;17.10;59.20;;;;;;5133799;27;20056;-79
2022/01/28 08:08:18;;;;;;;7.65;2.17;;;17.10;59.20;;;;;;5124784;27;20019;-75
2022/01/28 08:10:44;;;;;;;5.97;2.33;;;17.10;59.30;;;;;;5121848;27;20015;-83
2022/01/28 08:13:10;;;;;;;5.65;2.40;;;17.10;59.30;;;;;;5104760;27;20023;-75
2022/01/28 08:15:37;;;;;;;10.77;4.25;;;17.10;59.30;;;;;;5133745;27;20023;-74
2022/01/28 08:18:03;;;;;;;7.55;4.35;;;17.10;59.30;;;;;;5134502;27;20394;-81
2022/01/28 08:20:30;;;;;;;10.40;4.38;;;17.10;59.30;;;;;;5134236;27;20050;-78
2022/01/28 08:22:58;;;;;;;6.15;3.45;;;17.10;59.50;;;;;;5134530;27;20015;-74
2022/01/28 08:25:25;;;;;;;7.05;3.63;;;17.10;59.50;;;;;;5134098;27;20034;-76
2022/01/28 08:27:52;;;;;;;9.75;3.58;;;17.00;59.60;;;;;;5134292;27;20092;-74
2022/01/28 08:30:21;;;;;;;8.35;3.40;;;17.00;59.60;;;;;;5133952;27;20034;-75
2022/01/28 08:32:47;;;;;;;6.82;3.70;;;17.00;59.60;;;;;;5134209;27;20544;-75
2022/01/28 08:35:15;;;;;;;10.02;3.70;;;17.00;59.60;;;;;;5134574;27;20031;-75
2022/01/28 08:37:41;;;;;;;6.47;3.60;;;17.00;59.70;;;;;;5113747;28;20012;-80
2022/01/28 08:40:09;;;;;;;7.30;2.80;;;16.90;59.70;;;;;;5113565;28;20369;-78
2022/01/28 08:42:35;;;;;;;8.13;3.45;;;16.90;59.70;;;;;;5113258;28;20019;-80
2022/01/28 08:45:01;;;;;;;5.70;3.08;;;16.90;59.70;;;;;;5113357;28;20202;-79
2022/01/28 08:47:27;;;;;;;8.40;3.17;;;16.80;59.60;;;;;;5113086;28;20047;-80
2022/01/28 08:49:53;;;;;;;6.60;3.03;;;16.80;59.70;;;;;;5113291;28;20503;-80
2022/01/28 08:52:18;;;;;;;5.57;2.80;;;16.80;59.70;;;;;;5131951;27;20486;-75
2022/01/28 08:54:44;;;;;;;6.75;3.60;;;16.80;59.60;;;;;;5127612;27;20026;-75
2022/01/28 08:57:10;;;;;;;6.15;2.80;;;16.80;59.60;;;;;;5130752;27;20019;-76
2022/01/28 08:59:39;;;;;;;6.57;2.83;;;16.70;59.50;;;;;;5133428;27;20413;-80
2022/01/28 09:02:04;;;;;;;6.95;3.17;;;16.70;59.50;;;;;;5133481;27;20050;-80
2022/01/28 09:04:30;;;;;;;7.10;3.17;;;16.70;59.40;;;;;;5133283;27;20071;-79
2022/01/28 09:06:56;;;;;;;7.70;3.17;;;16.60;59.30;;;;;;5133001;27;20454;-81
2022/01/28 09:09:21;;;;;;;7.72;3.22;;;16.60;59.30;;;;;;5133169;27;20027;-78
2022/01/28 09:12:05;;;;;;;5.53;2.50;;;16.60;59.20;;;;;;5133480;27;20042;-81
2022/01/28 09:14:31;;;;;;;6.88;3.17;;;16.60;59.20;;;;;;5133130;27;20022;-79
2022/01/28 09:16:57;;;;;;;7.95;2.72;;;16.60;59.20;;;;;;5133231;27;20019;-78
2022/01/28 09:19:23;;;;;;;6.53;2.58;;;16.60;59.10;;;;;;5133054;27;20102;-76
2022/01/28 09:21:49;;;;;;;9.43;2.85;;;16.60;59.10;;;;;;5133288;27;20055;-77
2022/01/28 09:24:15;;;;;;;6.35;3.13;;;16.50;59.00;;;;;;5133109;27;20102;-75
2022/01/28 09:26:40;;;;;;;5.47;2.42;;;16.50;59.00;;;;;;5133374;27;20041;-78
2022/01/28 09:29:06;;;;;;;7.07;2.83;;;16.50;59.00;;;;;;5133070;27;20349;-78
2022/01/28 09:31:32;;;;;;;5.82;2.50;;;16.50;59.00;;;;;;5132827;27;20035;-79
2022/01/28 09:33:58;;;;;;;9.43;3.40;;;16.50;58.90;;;;;;5133029;27;20576;-76
2022/01/28 09:36:23;;;;;;;8.98;2.92;;;16.50;58.90;;;;;;5123606;27;20031;-78
2022/01/28 09:38:49;;;;;;;7.00;2.60;;;16.50;58.80;;;;;;5112058;28;20035;-75
2022/01/28 09:41:16;;;;;;;9.05;3.58;;;16.50;58.80;;;;;;5111962;28;20016;-75
2022/01/28 09:43:44;;;;;;;5.97;2.88;;;16.50;58.80;;;;;;5112436;28;20391;-75
2022/01/28 09:46:10;;;;;;;5.45;3.08;;;16.50;58.80;;;;;;5112479;28;20479;-75
2022/01/28 09:48:37;;;;;;;7.10;2.50;;;16.50;58.70;;;;;;5111953;28;20026;-75
2022/01/28 09:51:03;;;;;;;7.70;3.15;;;16.50;58.70;;;;;;5112169;28;20031;-76
2022/01/28 09:53:30;;;;;;;8.82;2.97;;;16.50;58.70;;;;;;5111832;28;20086;-76
2022/01/28 09:55:56;;;;;;;6.40;3.08;;;16.50;58.60;;;;;;5112073;28;20027;-76
2022/01/28 09:58:22;;;;;;;6.10;2.88;;;16.50;58.60;;;;;;5111725;28;20034;-78
2022/01/28 10:00:48;;;;;;;6.20;2.72;;;16.50;58.60;;;;;;5112063;28;20495;-77
2022/01/28 10:03:15;;;;;;;6.20;3.00;;;16.50;58.50;;;;;;5111846;28;20057;-76
2022/01/28 10:05:44;;;;;;;7.07;3.40;;;16.50;59.00;;;;;;5113332;27;20035;-81
2022/01/28 10:08:14;;;;;;;7.40;3.50;;;16.50;58.50;;;;;;5112139;28;20028;-80
2022/01/28 10:10:50;;;;;;;8.82;2.65;;;16.60;58.40;;;;;;5112217;28;20023;-75
2022/01/28 10:16:29;;;;;;;6.70;3.47;;;16.50;58.20;;;;;;5092391;28;20059;-75
2022/01/28 10:19:15;;;;;;;9.05;3.40;;;16.60;58.20;;;;;;5111809;28;20025;-75
2022/01/28 10:21:43;;;;;;;6.60;2.80;;;16.60;58.20;;;;;;5111789;28;20554;-74
2022/01/28 10:24:26;;;;;;;6.95;3.10;;;16.60;58.20;;;;;;5110777;28;20032;-74
2022/01/28 10:27:05;;;;;;;7.30;3.15;;;16.60;58.20;;;;;;5111664;28;20479;-75
2022/01/28 10:29:43;;;;;;;7.45;3.22;;;16.60;58.10;;;;;;5110876;28;20090;-75
2022/01/28 10:32:13;;;;;;;6.85;3.40;;;16.60;58.10;;;;;;5111695;28;20467;-75
2022/01/28 10:34:43;;;;;;;5.63;3.15;;;16.60;58.10;;;;;;5111680;28;20037;-75
2022/01/28 10:37:24;;;;;;;7.25;3.67;;;16.60;58.10;;;;;;5109366;28;20035;-75
2022/01/28 10:39:53;;;;;;;7.32;3.40;;;16.60;58.10;;;;;;5111494;28;20055;-75
2022/01/28 10:42:38;;;;;;;8.57;3.38;;;16.60;57.90;;;;;;5111384;28;20020;-75
2022/01/28 10:45:10;;;;;;;9.98;3.95;;;16.70;58.00;;;;;;5111517;28;20074;-74
2022/01/28 10:47:48;;;;;;;6.85;3.10;;;16.70;57.80;;;;;;5109880;28;20031;-75
2022/01/28 10:50:33;;;;;;;10.73;3.47;;;16.70;57.70;;;;;;5111535;28;20484;-75
2022/01/28 10:53:09;;;;;;;7.63;3.22;;;16.80;57.60;;;;;;5111503;28;20024;-75
2022/01/28 10:55:48;;;;;;;5.95;3.38;;;16.80;57.50;;;;;;5111174;28;20034;-79
2022/01/28 10:58:19;;;;;;;6.25;3.13;;;16.90;57.40;;;;;;5112278;28;20027;-76
2022/01/28 11:00:46;;;;;;;8.82;2.80;;;16.80;57.30;;;;;;5111477;28;20011;-75
2022/01/28 11:03:16;;;;;;;7.90;3.25;;;16.90;57.30;;;;;;5111503;28;20032;-75
2022/01/28 11:05:43;;;;;;;9.25;3.53;;;16.90;57.30;;;;;;5111531;28;20502;-74
2022/01/28 11:08:11;;;;;;;9.75;3.55;;;16.90;57.20;;;;;;5111502;28;20024;-74
2022/01/28 11:10:38;;;;;;;8.88;2.88;;;17.00;57.10;;;;;;5110994;28;20016;-74
2022/01/28 11:13:04;;;;;;;8.23;3.55;;;17.10;57.00;;;;;;5111288;28;20426;-74
2022/01/28 11:15:31;;;;;;;8.05;3.70;;;17.20;56.90;;;;;;5111009;28;20020;-74
2022/01/28 11:17:59;;;;;;;8.27;3.60;;;17.20;56.70;;;;;;5111265;28;20024;-74
2022/01/28 11:20:43;;;;;;;7.25;2.88;;;17.20;56.60;;;;;;5111001;28;20038;-74
2022/01/28 11:23:36;;;;;;;7.80;3.78;;;17.30;56.40;;;;;;5111229;28;20015;-74
2022/01/28 11:26:28;;;;;;;9.93;3.10;;;17.40;56.30;;;;;;5110991;28;20031;-74
2022/01/28 11:28:56;;;;;;;9.13;3.70;;;17.60;56.00;;;;;;5130888;28;20035;-74
2022/01/28 11:31:43;;;;;;;8.48;3.78;;;17.70;55.70;;;;;;5113197;28;20539;-73
2022/01/28 11:34:21;;;;;;;8.60;3.00;;;18.00;55.30;;;;;;5115980;28;20024;-72
2022/01/28 11:36:47;;;;;;;6.88;2.80;;;19.00;53.80;;;;;;5117783;28;20035;-73
2022/01/28 11:39:38;;;;;;;7.50;3.53;;;20.90;51.00;;;;;;5102428;27;20011;-74
2022/01/28 11:42:07;;;;;;;8.77;3.63;;;;;;;;;;5123389;27;20023;-73
2022/01/28 11:44:54;;;;;;;6.32;2.90;;;22.20;47.80;;;;;;5122265;27;20020;-74
2022/01/28 11:47:23;;;;;;;6.88;3.60;;;24.50;43.50;;;;;;5122957;27;20023;-73
2022/01/28 11:50:06;;;;;;;7.97;2.92;;;25.20;42.50;;;;;;5121876;27;20023;-74
2022/01/28 11:52:42;;;;;;;8.15;2.72;;;25.90;41.50;;;;;;5121870;27;20035;-73
2022/01/28 11:55:37;;;;;;;8.52;2.60;;;26.50;40.60;;;;;;5121879;27;20038;-72
2022/01/28 11:58:05;;;;;;;6.57;3.00;;;26.90;40.20;;;;;;5121470;27;20024;-74
2022/01/28 12:00:47;;;;;;;8.20;2.85;;;27.40;39.40;;;;;;5124033;27;20023;-74
2022/01/28 12:03:24;;;;;;;6.85;3.25;;;27.70;38.90;;;;;;5121988;27;20084;-75
2022/01/28 12:05:56;;;;;;;6.07;2.47;;;28.00;38.30;;;;;;5103233;27;20031;-74
2022/01/28 12:08:26;;;;;;;6.40;2.58;;;28.20;38.20;;;;;;5122298;27;20106;-73
2022/01/28 12:10:53;;;;;;;10.05;2.53;;;28.50;37.80;;;;;;5121805;27;20019;-73
2022/01/28 12:13:29;;;;;;;4.88;2.40;;;28.80;37.30;;;;;;5122368;27;20019;-75
2022/01/28 12:16:03;;;;;;;5.22;2.83;;;28.80;37.30;;;;;;5122107;27;20020;-80
2022/01/28 12:18:46;;;;;;;6.95;2.83;;;29.30;37.00;;;;;;5123183;27;20023;-72
2022/01/28 12:21:14;;;;;;;7.10;2.95;;;29.90;37.20;;;;;;5121199;27;20079;-75
2022/01/28 12:23:39;;;;;;;6.00;2.72;;;30.40;36.30;;;;;;5123773;27;20023;-76
2022/01/28 12:26:06;;;;;;;6.35;2.38;;;30.70;35.50;;;;;;5121716;27;20042;-73
2022/01/28 12:28:31;;;;;;;5.57;2.28;;;31.10;35.10;;;;;;5122411;27;20019;-76
2022/01/28 12:31:16;;;;;;;6.00;3.10;;;31.20;34.80;;;;;;5123015;27;20029;-73
2022/01/28 12:33:48;;;;;;;5.87;3.03;;;31.50;34.30;;;;;;5130697;27;20050;-73
2022/01/28 12:36:21;;;;;;;5.63;2.70;;;31.50;34.20;;;;;;5134077;27;20265;-73
2022/01/28 12:39:09;;;;;;;4.68;2.05;;;31.70;34.10;;;;;;5115666;27;20394;-78
2022/01/28 12:41:43;;;;;;;5.35;2.22;;;31.70;34.20;;;;;;5133904;27;20029;-75
2022/01/28 12:44:14;;;;;;;5.60;2.22;;;31.60;34.20;;;;;;5134005;27;20382;-73
2022/01/28 12:46:39;;;;;;;5.85;2.50;;;31.70;34.10;;;;;;5134147;27;20063;-73
2022/01/28 12:49:08;;;;;;;4.95;2.13;;;31.90;34.00;;;;;;5133923;27;20498;-75
2022/01/28 12:51:38;;;;;;;4.45;2.25;;;31.90;34.00;;;;;;5132864;27;20042;-76
2022/01/28 12:54:04;;;;;;;3.67;2.00;;;32.10;34.10;;;;;;5133956;27;20506;-78
2022/01/28 12:56:34;;;;;;;4.10;2.25;;;32.00;33.90;;;;;;5132672;27;20475;-77
2022/01/28 12:59:01;;;;;;;5.43;2.30;;;31.60;34.00;;;;;;5133701;27;20060;-78
2022/01/28 13:01:27;;;;;;;5.60;2.22;;;31.50;34.40;;;;;;5133324;27;20054;-73
2022/01/28 13:04:16;;;;;;;5.57;2.05;;;31.50;34.50;;;;;;5133165;27;20035;-77
2022/01/28 13:09:16;;;;;;;5.40;2.03;;;29.90;36.60;;;;;;5113323;28;20038;-75
2022/01/28 13:11:56;;;;;;;6.10;2.50;;;27.90;39.20;;;;;;5113194;28;20020;-74
2022/01/28 13:14:29;;;;;;;5.28;2.00;;;26.60;41.20;;;;;;5112721;28;20080;-74
2022/01/28 13:16:55;;;;;;;4.88;2.35;;;25.90;42.50;;;;;;5112847;28;20051;-76
2022/01/28 13:19:21;;;;;;;5.07;1.95;;;25.30;43.50;;;;;;5112555;28;20467;-77
2022/01/28 13:21:48;;;;;;;5.07;2.00;;;24.80;44.40;;;;;;5112676;28;20023;-79
2022/01/28 13:24:17;;;;;;;5.38;2.10;;;24.40;44.90;;;;;;5112259;28;20019;-75
2022/01/28 13:27:08;;;;;;;4.72;2.20;;;24.00;45.80;;;;;;5122828;27;20027;-76
2022/01/28 13:29:38;;;;;;;6.47;2.53;;;23.50;46.50;;;;;;5132770;27;20027;-78
2022/01/28 13:32:14;;;;;;;6.05;2.38;;;23.30;47.10;;;;;;5133173;27;20517;-79
2022/01/28 13:34:49;;;;;;;5.10;1.70;;;23.00;47.50;;;;;;5133258;27;20386;-80
2022/01/28 13:37:53;;;;;;;4.43;2.33;;;22.90;47.80;;;;;;5132911;27;20106;-78
2022/01/28 13:40:18;;;;;;;5.30;2.00;;;22.70;48.00;;;;;;5029396;28;20512;-75
2022/01/28 13:43:06;;;;;;;5.53;2.30;;;22.50;48.30;;;;;;5112844;27;20031;-75
2022/01/28 13:45:36;;;;;;;6.20;2.35;;;22.40;48.80;;;;;;5113957;27;20058;-75
2022/01/28 13:48:08;;;;;;;6.05;2.17;;;22.20;48.90;;;;;;5132811;27;20027;-77
2022/01/28 13:50:37;;;;;;;7.70;1.98;;;22.10;49.30;;;;;;5132558;27;20448;-78
2022/01/28 13:53:33;;;;;;;5.53;2.15;;;22.00;49.40;;;;;;5132907;27;20022;-74
2022/01/28 13:56:04;;;;;;;4.57;1.77;;;21.90;49.60;;;;;;5132284;27;20459;-76
2022/01/28 13:58:51;;;;;;;4.22;1.83;;;21.80;49.80;;;;;;5132491;27;20466;-79
2022/01/28 14:01:18;;;;;;;4.53;1.98;;;21.70;50.10;;;;;;5128641;27;20016;-79
2022/01/28 14:04:04;;;;;;;4.88;2.17;;;21.60;50.30;;;;;;5111407;28;20020;-76
2022/01/28 14:06:34;;;;;;;4.68;1.85;;;21.60;50.60;;;;;;5111811;28;20028;-80
2022/01/28 14:09:07;;;;;;;4.13;1.80;;;21.50;50.60;;;;;;5111749;28;20036;-79
2022/01/28 14:11:39;;;;;;;5.00;1.90;;;21.40;50.80;;;;;;5111844;28;20486;-78
2022/01/28 14:14:05;;;;;;;9.02;2.63;;;21.40;50.90;;;;;;5120626;27;20022;-78
2022/01/28 14:16:31;;;;;;;5.95;1.98;;;21.30;51.10;;;;;;5132347;27;20025;-79
2022/01/28 14:18:57;;;;;;;4.22;1.70;;;21.30;51.00;;;;;;5125240;27;20110;-75
2022/01/28 14:21:22;;;;;;;4.53;1.60;;;21.30;51.20;;;;;;5117858;27;20027;-77
2022/01/28 14:23:48;;;;;;;5.38;1.85;;;21.20;51.20;;;;;;5131868;27;20034;-78